Date,TemperatureHighF,TemperatureAvgF,TemperatureLowF,DewpointHighF,DewpointAvgF,DewpointLowF,HumidityHigh,HumidityAvg,HumidityLow,PressureMaxIn,PressureMinIn,WindSpeedMaxMPH,WindSpeedAvgMPH,GustSpeedMaxMPH,PrecipitationSumIn
2013-1-1,32.0,29.3,22.0,32.0,25.3,-99.9,99,92,86,30.18,30.05,6,1,9,0.10
2013-1-2,22.0,17.1,12.0,21.0,12.8,7.0,95,83,64,30.28,30.17,6,1,7,0.10
2013-1-3,36.0,22.9,11.0,26.0,17.5,8.0,92,80,62,30.34,30.22,9,2,12,0.00
2013-1-4,35.0,29.6,0.0,26.0,22.7,-5.0,90,76,58,30.38,30.33,10,3,22,0.00
2013-1-5,38.0,29.5,21.0,29.0,25.0,20.0,98,84,66,30.36,30.17,7,2,14,0.00
2013-1-6,37.0,32.6,26.0,34.0,25.4,-99.9,90,81,77,30.39,30.05,9,4,15,0.00
2013-1-7,36.0,26.6,16.0,29.0,23.6,16.0,98,89,74,30.47,30.25,7,1,12,0.00
2013-1-8,46.0,34.4,26.0,34.0,27.2,-99.9,95,81,61,30.31,30.21,7,2,12,0.00
2013-1-9,55.0,44.2,36.0,45.0,37.3,32.0,98,78,49,30.51,30.21,7,2,10,0.00
2013-1-10,46.0,38.4,32.0,44.0,34.0,-99.9,98,90,75,30.53,0.00,7,3,10,0.00
2013-1-11,60.0,54.5,46.0,56.0,51.0,45.0,99,88,69,30.05,29.85,10,6,16,0.00
2013-1-12,65.0,57.5,52.0,63.0,55.3,48.0,99,92,78,30.01,29.73,12,5,22,0.00
2013-1-13,65.0,42.5,26.0,63.0,42.0,23.0,99,97,88,30.21,29.66,16,6,23,0.10
2013-1-14,26.0,23.1,19.0,23.0,20.0,17.0,94,88,80,30.45,30.21,8,4,13,4.70
2013-1-15,24.0,23.3,23.0,22.0,21.3,21.0,94,91,88,30.38,30.35,5,3,8,4.70
2013-1-17,31.0,28.3,23.0,22.0,21.0,20.0,94,74,68,30.43,30.36,3,2,7,4.70
2013-1-18,40.0,30.6,21.0,28.0,22.6,18.0,96,73,53,30.53,30.22,10,4,18,0.10
2013-1-19,54.0,45.1,36.0,37.0,29.8,25.0,69,56,43,30.22,29.91,14,7,23,0.30
2013-1-20,48.0,32.4,25.0,38.0,20.3,13.0,75,61,45,30.28,29.97,13,6,24,0.10
2013-1-21,25.0,19.4,12.0,18.0,9.9,1.0,84,67,46,30.30,30.15,12,6,20,0.00
2013-1-22,19.0,12.1,6.0,4.0,1.0,-1.0,75,61,45,30.42,30.29,9,3,18,0.00
2013-1-23,24.0,18.1,12.0,15.0,8.2,3.0,76,65,59,30.38,30.11,6,1,9,0.00
2013-1-24,24.0,20.5,15.0,17.0,8.1,2.0,86,60,39,30.60,30.13,10,4,18,0.00
2013-1-25,28.0,23.5,19.0,23.0,16.6,6.0,95,76,52,30.42,30.06,9,3,13,0.10
2013-1-26,31.0,24.9,20.0,22.0,19.9,17.0,94,82,64,30.44,30.13,6,2,9,0.10
2013-1-27,39.0,29.8,21.0,39.0,24.9,18.0,99,83,58,30.42,30.11,8,4,16,0.20
2013-1-28,53.0,47.7,39.0,53.0,47.3,39.0,99,98,90,30.13,30.02,10,6,15,0.60
2013-1-29,65.0,57.2,51.0,59.0,54.9,51.0,99,92,79,30.04,29.51,16,8,30,0.10
2013-1-30,66.0,49.5,30.0,60.0,44.8,-99.9,99,89,78,29.66,29.30,55,9,32,1.60
2013-1-31,30.0,25.0,14.0,25.0,15.9,-99.9,97,74,61,30.12,29.66,12,8,23,0.10
2013-2-1,18.0,11.8,0.0,10.0,4.3,-99.9,84,73,62,30.44,30.12,12,4,23,0.00
2013-2-2,30.0,23.8,16.0,26.0,20.7,10.0,98,88,75,30.33,30.01,9,4,13,0.10
2013-2-3,26.0,20.9,16.0,23.0,17.4,12.0,93,86,77,30.14,29.98,7,2,12,0.10
2013-2-4,37.0,27.7,18.0,36.0,25.0,16.0,99,90,70,30.13,29.82,12,4,18,0.00
2013-2-5,41.0,32.5,26.0,35.0,29.1,23.0,98,87,70,30.04,29.85,9,2,13,0.00
2013-2-6,37.0,32.3,30.0,33.0,26.8,-99.9,92,85,79,30.28,30.04,7,2,13,0.00
2013-2-7,58.0,43.0,31.0,45.0,34.5,29.0,94,74,49,30.19,29.81,7,2,10,0.30
2013-2-8,48.0,35.5,30.0,47.0,32.8,27.0,99,90,84,30.36,29.83,12,6,23,0.30
2013-2-9,42.0,32.9,25.0,27.0,25.1,23.0,96,74,52,30.43,30.19,8,2,12,0.00
2013-2-10,52.0,43.9,34.0,49.0,36.0,24.0,98,75,54,30.19,29.77,12,6,23,0.10
2013-2-11,51.0,44.4,38.0,50.0,34.3,27.0,98,69,54,30.08,29.75,18,8,26,0.10
2013-2-12,48.0,37.8,29.0,31.0,28.0,25.0,90,70,41,30.16,29.93,8,2,12,0.00
2013-2-13,44.0,33.8,29.0,33.0,29.1,26.0,97,84,50,29.93,29.81,7,3,10,0.00
2013-2-14,52.0,41.8,33.0,38.0,34.3,30.0,96,77,53,30.03,29.83,13,6,23,0.00
2013-2-15,38.0,33.2,27.0,31.0,27.6,20.0,96,80,64,30.18,30.01,13,3,20,0.00
2013-2-16,27.0,24.1,21.0,20.0,16.3,13.0,85,72,58,30.17,30.09,12,4,18,0.00
2013-2-17,35.0,23.7,15.0,20.0,12.9,8.0,95,65,37,30.26,30.14,6,2,10,0.00
2013-2-18,59.0,42.1,0.0,44.0,24.7,-99.9,95,58,39,30.17,29.68,41,8,29,0.00
2013-2-19,46.0,30.7,24.0,44.0,22.7,-99.9,97,77,62,30.16,29.65,16,8,28,0.00
2013-2-20,28.0,22.2,17.0,19.0,12.9,-99.9,87,69,53,30.33,30.16,10,4,16,0.00
2013-2-21,32.0,25.0,18.0,29.0,19.2,-99.9,97,83,70,30.35,30.02,15,5,25,0.00
2013-2-22,39.0,34.9,30.0,37.0,30.6,-99.9,99,92,84,30.03,29.86,10,3,16,0.40
2013-2-23,42.0,33.5,27.0,31.0,22.5,-99.9,88,70,52,30.02,29.91,7,2,10,0.40
2013-2-24,42.0,32.0,24.0,30.0,26.0,22.0,95,79,60,30.15,29.99,6,1,9,0.00
2013-2-25,46.0,35.7,27.0,30.0,27.0,24.0,89,72,48,30.16,29.88,10,5,15,0.00
2013-2-26,45.0,40.5,36.0,45.0,37.5,27.0,99,90,62,29.88,29.38,10,5,17,0.00
2013-2-27,42.0,35.8,32.0,40.0,34.2,30.0,98,94,88,29.75,29.52,13,7,20,0.00
2013-2-28,38.0,34.5,32.0,35.0,32.6,29.0,97,93,86,30.00,29.72,9,5,16,0.00
2013-3-1,35.0,32.8,32.0,34.0,31.4,28.0,99,95,90,30.07,29.96,7,4,10,0.00
2013-3-2,31.0,28.7,27.0,28.0,23.7,21.0,88,81,71,30.11,30.05,9,4,14,0.00
2013-3-3,35.0,29.2,26.0,26.0,22.0,19.0,95,75,54,30.13,30.07,10,4,15,0.00
2013-3-4,40.0,31.9,21.0,30.0,23.9,20.0,98,74,54,30.15,29.97,7,3,14,0.00
2013-3-5,38.0,35.6,29.0,38.0,32.1,28.0,99,88,69,29.97,29.64,9,5,16,0.00
2013-3-6,32.0,29.8,28.0,31.0,29.1,27.0,99,97,95,30.29,29.75,10,6,17,0.10
2013-3-7,37.0,32.6,29.0,32.0,29.1,27.0,97,88,71,30.41,30.28,7,3,8,0.10
2013-3-8,43.0,35.8,29.0,31.0,28.1,25.0,92,74,58,30.48,30.37,8,3,13,0.00
2013-3-9,56.0,44.9,32.0,36.0,31.8,28.0,87,63,41,30.38,30.00,9,5,14,0.00
2013-3-10,67.0,58.5,52.0,38.0,36.3,33.0,58,44,33,30.01,29.78,13,7,21,0.00
2013-3-11,62.0,48.1,35.0,53.0,43.1,32.0,99,84,40,29.89,29.65,15,8,25,0.20
2013-3-12,46.0,37.8,34.0,34.0,28.8,24.0,98,72,47,30.08,29.89,10,6,16,0.10
2013-3-13,34.0,33.5,33.0,33.0,31.1,29.0,96,91,85,30.07,30.06,8,4,13,0.00
2013-3-19,43.0,39.3,35.0,23.0,19.4,15.0,59,45,33,30.15,30.04,15,7,30,0.00
2013-3-20,35.0,30.4,25.0,23.0,17.6,12.0,75,59,46,30.14,30.02,13,4,24,0.00
2013-3-21,34.0,25.6,19.0,18.0,14.5,10.0,90,64,45,30.07,29.99,8,4,15,0.00
2013-3-22,27.0,26.0,24.0,18.0,17.6,17.0,74,69,66,30.06,30.04,0,0,0,0.00
2013-3-23,50.0,45.3,39.0,31.0,26.7,23.0,67,49,38,30.07,29.88,8,3,12,0.00
2013-3-24,39.0,35.0,31.0,34.0,30.7,27.0,99,85,64,29.89,29.43,14,5,17,0.10
2013-3-25,34.0,30.6,28.0,33.0,30.3,28.0,99,98,93,30.01,29.46,10,3,15,0.10
2013-3-26,39.0,34.1,30.0,32.0,28.3,25.0,98,81,58,30.29,30.01,10,6,17,0.00
2013-3-27,43.0,35.9,29.0,31.0,27.2,24.0,93,72,47,30.35,30.28,8,3,12,0.00
2013-3-28,50.0,38.9,28.0,31.0,27.1,23.0,85,64,46,30.40,30.30,6,1,9,0.00
2013-3-29,53.0,42.9,32.0,34.0,31.1,29.0,92,65,41,30.35,30.23,5,0,6,0.00
2013-3-30,58.0,47.9,34.0,37.0,34.3,32.0,95,62,38,30.26,29.94,9,2,14,0.00
2013-3-31,60.0,51.3,46.0,47.0,42.7,-99.9,97,78,48,29.94,29.80,9,3,16,0.00
2013-4-1,49.0,41.4,34.0,46.0,28.7,19.0,97,63,38,30.17,29.85,12,6,17,0.00
2013-4-2,46.0,36.4,28.0,23.0,20.0,16.0,73,53,31,30.31,30.17,10,2,15,0.00
2013-4-3,48.0,38.4,28.0,24.0,19.6,16.0,69,48,29,30.44,30.29,10,2,16,0.00
2013-4-4,58.0,44.3,34.0,25.0,22.2,17.0,70,45,22,30.34,30.02,7,1,10,0.00
2013-4-5,59.0,47.3,34.0,37.0,29.2,23.0,80,52,30,30.16,30.01,10,2,13,0.00
2013-4-6,55.0,45.0,41.0,33.0,30.8,30.0,68,58,42,30.18,30.13,9,3,14,0.00
2013-4-10,79.0,74.5,69.0,61.0,59.8,59.0,76,61,50,29.77,29.74,5,2,10,0.00
2013-4-11,73.0,63.3,54.0,63.0,60.0,53.0,99,90,55,29.76,29.52,9,5,14,0.00
2013-4-12,53.0,44.2,39.0,53.0,36.4,31.0,99,75,58,29.93,29.59,10,6,18,0.00
2013-4-13,57.0,47.7,39.0,37.0,34.6,32.0,86,62,40,30.03,29.93,15,5,22,0.00
2013-4-14,71.0,56.4,42.0,46.0,39.9,-99.9,90,59,33,30.03,29.83,9,4,15,0.00
2013-4-15,71.0,62.3,55.0,55.0,51.3,45.0,81,68,53,29.98,29.87,8,4,15,0.00
2013-4-16,75.0,61.9,55.0,63.0,57.3,53.0,99,86,63,30.16,29.91,10,4,20,0.00
2013-4-25,48.0,47.9,47.0,34.0,33.0,32.0,58,56,54,30.39,30.36,0,0,0,0.00
2013-4-26,63.0,50.8,36.0,41.0,35.5,33.0,95,60,36,30.45,30.33,6,1,9,0.00
2013-4-27,59.0,53.9,46.0,54.0,45.3,37.0,96,73,51,30.35,30.03,7,2,12,0.00
2013-4-28,64.0,57.9,55.0,61.0,54.5,-99.9,99,92,68,30.02,29.85,10,4,16,0.00
2013-4-29,67.0,59.8,56.0,56.0,54.5,51.0,99,84,58,30.02,29.90,7,2,10,0.00
2013-4-30,79.0,65.5,51.0,58.0,53.3,50.0,98,68,39,30.04,29.94,8,2,14,0.00
2013-5-1,83.0,70.9,56.0,59.0,53.7,49.0,89,58,31,30.15,30.04,8,1,13,0.00
2013-5-2,75.0,69.1,61.0,56.0,54.2,51.0,75,60,45,30.19,30.06,6,2,10,0.00
2013-5-3,75.0,67.6,61.0,60.0,55.3,46.0,85,66,46,30.07,29.89,7,3,14,0.00
2013-5-4,67.0,60.8,55.0,54.0,47.3,42.0,96,63,43,30.03,29.92,7,3,12,0.00
2013-5-5,55.0,53.3,52.0,54.0,52.7,50.0,99,98,88,30.01,29.90,12,4,15,0.00
2013-5-6,65.0,59.4,55.0,57.0,54.8,51.0,99,85,70,29.97,29.86,10,5,18,0.00
2013-5-7,71.0,63.2,57.0,58.0,55.9,54.0,97,79,55,29.99,29.92,6,1,8,0.00
2013-5-8,77.0,65.7,56.0,60.0,56.4,51.0,99,75,42,30.03,29.95,7,1,12,0.00
2013-5-9,80.0,66.8,57.0,62.0,56.4,50.0,96,73,36,30.03,29.88,12,2,21,0.00
2013-5-10,67.0,62.1,55.0,64.0,59.5,-99.9,99,95,87,29.91,29.81,7,2,14,0.00
2013-5-11,61.0,53.1,47.0,54.0,46.7,34.0,97,81,44,30.02,29.88,10,4,23,0.00
2013-5-12,56.0,48.7,40.0,43.0,33.0,-99.9,84,58,38,30.13,30.02,12,2,16,0.00
2013-5-13,64.0,52.6,40.0,37.0,32.0,-99.9,81,49,28,30.20,30.11,9,2,40,0.00
2013-5-14,83.0,65.6,50.0,58.0,47.7,38.0,73,54,36,30.14,29.82,10,4,20,0.00
2013-5-15,86.0,76.5,68.0,58.0,56.7,55.0,71,52,35,29.91,29.82,13,5,21,0.00
2013-5-16,75.0,72.9,71.0,60.0,58.3,57.0,64,60,54,29.86,29.84,7,4,14,0.00
2013-5-18,77.0,73.0,68.0,70.0,65.5,58.0,94,78,62,30.02,29.85,6,2,8,0.00
2013-5-19,84.0,73.0,63.0,73.0,64.6,60.0,99,78,45,29.98,29.84,5,1,8,0.00
2013-5-20,83.0,76.6,68.0,71.0,67.3,62.0,97,75,50,29.96,29.83,9,4,16,0.00
2013-5-21,82.0,72.8,62.0,67.0,63.0,58.0,99,74,48,29.96,29.78,12,4,21,0.10
2013-5-22,75.0,69.8,65.0,67.0,62.3,57.0,97,78,55,29.80,29.72,9,4,18,0.10
2013-5-23,67.0,61.0,52.0,62.0,56.3,48.0,99,85,64,30.13,29.78,10,4,20,0.00
2013-5-24,65.0,55.6,46.0,48.0,43.2,37.0,97,67,36,30.35,30.13,7,2,16,0.00
2013-5-25,66.0,56.4,46.0,51.0,46.0,39.0,96,71,38,30.37,30.21,3,0,8,0.20
2013-5-26,69.0,60.1,52.0,56.0,51.9,48.0,97,76,52,30.30,30.16,5,1,9,0.40
2013-5-27,82.0,69.2,57.0,61.0,57.4,55.0,99,70,46,30.16,29.91,9,4,20,0.10
2013-5-28,82.0,74.3,66.0,66.0,62.8,61.0,91,69,51,29.99,29.89,13,5,23,0.00
2013-5-29,85.0,76.7,68.0,62.0,59.3,55.0,75,56,36,30.05,29.95,12,3,21,0.00
2013-5-30,86.0,77.3,70.0,68.0,64.3,62.0,84,65,47,30.08,29.97,8,3,20,0.00
2013-5-31,76.0,72.4,67.0,71.0,67.4,64.0,99,85,71,30.02,29.88,9,4,16,0.20
2013-6-1,76.0,70.8,65.0,71.0,65.9,63.0,99,85,66,29.91,29.76,9,4,22,0.20
2013-6-2,72.0,67.6,63.0,65.0,59.6,-99.9,96,80,62,29.96,29.82,8,3,14,0.00
2013-6-3,68.0,60.7,53.0,58.0,50.4,47.0,89,70,52,30.06,29.96,8,2,13,0.00
2013-6-4,75.0,64.1,52.0,53.0,48.8,46.0,92,60,38,30.13,30.03,8,2,13,0.00
2013-6-5,80.0,69.8,58.0,60.0,53.8,47.0,80,58,43,30.06,29.83,6,1,9,0.00
2013-6-6,76.0,68.2,61.0,66.0,63.1,60.0,99,84,66,29.85,29.76,6,1,9,0.20
2013-6-7,76.0,67.0,59.0,65.0,59.7,56.0,99,80,52,29.87,29.78,5,1,9,0.10
2013-6-8,77.0,67.4,60.0,65.0,60.1,57.0,95,79,54,30.00,29.85,6,1,8,0.00
2013-6-9,80.0,71.5,63.0,69.0,63.1,55.0,98,77,44,30.03,29.83,6,1,13,0.00
2013-6-10,75.0,69.7,65.0,68.0,64.2,60.0,99,84,62,29.87,29.78,8,3,18,0.00
2013-6-11,84.0,74.4,64.0,66.0,62.8,60.0,94,70,46,29.97,29.87,7,2,12,0.00
2013-6-12,90.0,80.8,71.0,74.0,69.5,65.0,96,71,50,29.93,29.71,10,3,23,0.00
2013-6-13,83.0,82.1,82.0,70.0,68.9,68.0,68,64,62,29.72,29.65,9,7,16,0.00
2013-7-17,91.0,89.2,84.0,72.0,69.2,67.0,66,52,46,30.28,30.17,2,0,6,0.00
2013-7-18,90.0,80.9,74.0,76.0,72.4,69.0,98,78,51,30.19,30.01,3,1,7,0.20
2013-7-19,88.0,82.1,76.0,75.0,72.1,68.0,98,74,54,30.03,29.87,6,2,12,0.20
2013-7-20,86.0,74.2,68.0,71.0,68.2,-99.9,99,85,60,29.92,29.84,7,2,15,0.30
2013-7-21,84.0,75.2,66.0,73.0,68.1,64.0,99,81,54,29.96,29.85,3,0,6,0.20
2013-7-22,80.0,72.5,69.0,74.0,70.3,69.0,99,93,72,29.89,29.75,8,1,12,0.00
2013-7-23,86.0,77.7,69.0,75.0,70.2,66.0,99,79,58,29.83,29.70,8,3,15,0.00
2013-7-24,75.0,67.1,58.0,60.0,57.5,55.0,96,73,51,29.98,29.84,3,1,8,0.00
2013-7-25,77.0,65.3,56.0,59.0,55.9,54.0,97,74,46,30.07,29.98,5,0,9,0.00
2013-7-26,79.0,68.7,57.0,62.0,58.7,56.0,98,73,47,30.06,29.94,5,1,12,0.00
2013-7-27,77.0,70.0,63.0,67.0,58.7,52.0,99,70,47,29.94,29.84,8,4,15,0.00
2013-7-28,72.0,63.6,53.0,54.0,51.2,47.0,96,67,44,30.04,29.92,9,2,17,0.00
2013-7-29,78.0,65.7,56.0,61.0,56.1,54.0,98,74,46,30.16,30.03,5,1,8,0.00
2013-7-30,77.0,67.9,60.0,65.0,61.5,59.0,98,81,58,30.19,30.08,8,1,12,0.00
2013-7-31,76.0,69.6,64.0,69.0,66.4,63.0,99,90,75,30.08,29.92,6,1,7,0.00
2013-8-1,80.0,72.9,65.0,70.0,62.7,53.0,99,74,41,29.99,29.92,8,1,15,0.00
2013-8-2,80.0,71.4,60.0,66.0,61.7,58.0,97,73,52,29.98,29.92,8,2,13,0.00
2013-8-3,80.0,75.0,68.0,71.0,66.1,60.0,99,75,56,30.03,29.93,5,1,9,0.20
2013-8-4,78.0,68.9,58.0,60.0,55.5,51.0,88,64,40,30.13,30.03,5,1,10,0.10
2013-8-5,79.0,67.8,57.0,62.0,57.9,54.0,99,74,42,30.09,29.91,5,1,8,0.00
2013-8-6,80.0,72.7,67.0,71.0,64.6,59.0,90,76,69,29.93,29.87,5,1,7,0.00
2013-8-7,83.0,76.4,70.0,75.0,71.6,70.0,99,86,68,29.91,29.84,5,1,12,0.00
2013-8-8,88.0,77.8,73.0,74.0,71.8,66.0,99,84,49,29.93,29.85,5,1,7,0.40
2013-8-9,82.0,74.7,71.0,74.0,70.2,64.0,99,87,55,30.01,29.88,3,0,7,0.10
2013-8-10,84.0,76.8,69.0,70.0,66.4,62.0,96,71,49,30.09,30.01,6,0,6,0.00
2013-8-11,84.0,75.8,66.0,72.0,65.1,58.0,99,72,42,30.07,30.02,8,1,10,0.00
2013-8-12,81.0,70.7,63.0,71.0,65.9,63.0,99,86,61,30.06,29.85,5,0,8,0.00
2013-8-13,76.0,69.2,59.0,71.0,58.8,-99.9,99,74,54,30.05,29.85,6,1,10,0.00
2013-8-14,70.0,57.8,51.0,52.0,43.9,-99.9,95,70,48,30.16,30.05,2,1,9,0.00
2013-8-15,57.0,54.6,53.0,52.0,51.3,51.0,92,88,81,30.14,30.13,3,0,3,0.00
2013-8-25,86.0,80.7,72.0,62.0,57.3,53.0,70,47,33,30.22,30.18,2,1,6,0.00
2013-8-26,88.0,76.4,63.0,71.0,65.4,61.0,96,71,45,30.22,30.06,7,1,10,0.00
2013-8-27,88.0,77.7,71.0,73.0,71.2,69.0,99,82,55,30.07,29.97,5,1,7,0.00
2013-9-2,83.0,75.5,69.0,72.0,66.8,59.0,99,77,45,29.87,29.77,7,2,15,0.00
2013-9-3,76.0,66.5,58.0,61.0,55.7,51.0,94,71,45,30.03,29.88,6,1,13,0.00
2013-9-4,81.0,68.3,56.0,62.0,56.5,53.0,99,70,39,30.13,30.03,3,0,7,0.00
2013-9-5,84.0,72.3,59.0,65.0,60.1,57.0,99,69,40,30.17,30.10,3,0,6,0.00
2013-9-6,81.0,69.7,58.0,61.0,56.2,52.0,82,64,44,30.20,30.06,5,1,7,0.00
2013-9-7,85.0,73.1,59.0,66.0,60.8,57.0,96,68,44,30.07,29.93,8,2,12,0.00
2013-9-8,88.0,75.4,68.0,69.0,62.7,-99.9,96,70,45,29.96,29.90,6,1,8,0.00
2013-9-10,77.0,75.9,74.0,70.0,68.7,66.0,86,79,70,30.10,30.05,6,2,8,0.00
2013-9-11,92.0,79.2,70.0,72.0,67.8,57.0,99,73,31,30.12,30.01,7,2,12,0.00
2013-9-12,78.0,77.4,76.0,72.0,71.3,70.0,86,81,76,30.00,29.97,6,3,9,0.00
2013-10-2,74.0,67.7,62.0,70.0,66.0,62.0,99,94,81,30.09,30.01,3,0,5,0.00
2013-10-3,79.0,71.9,67.0,71.0,66.9,64.0,99,86,60,30.05,29.96,7,2,10,0.00
2013-10-4,81.0,72.9,67.0,71.0,68.1,67.0,99,86,63,30.06,29.99,6,1,9,0.10
2013-10-5,74.0,70.2,65.0,73.0,68.9,65.0,99,96,88,30.03,29.90,7,3,15,0.10
2013-10-6,66.0,60.5,51.0,66.0,59.3,43.0,99,95,70,29.88,29.74,7,2,10,0.10
2013-10-7,61.0,52.1,47.0,50.0,45.9,43.0,94,80,60,30.13,29.83,7,3,10,0.10
2013-10-8,68.0,55.9,44.0,54.0,45.9,42.0,99,73,40,30.24,30.14,6,1,9,0.00
2013-10-9,52.0,50.2,49.0,46.0,45.8,45.0,88,85,78,30.18,30.16,2,0,3,0.00
2013-10-11,76.0,67.8,48.0,55.0,50.4,47.0,99,57,37,30.09,30.00,3,1,5,0.00
2013-10-12,77.0,63.4,49.0,59.0,54.4,49.0,99,76,44,30.10,30.02,3,0,7,0.00
2013-10-13,72.0,63.1,56.0,63.0,47.4,-99.9,93,63,32,30.30,30.10,7,2,13,0.00
2013-10-14,70.0,55.6,44.0,48.0,44.7,43.0,96,70,39,30.32,30.17,6,1,8,0.00
2013-10-15,68.0,60.3,53.0,65.0,57.6,47.0,99,91,70,30.17,29.92,8,2,12,0.10
2013-10-16,64.0,59.0,49.0,64.0,53.7,45.0,99,83,58,29.97,29.87,6,2,10,0.10
2013-10-17,48.0,45.8,44.0,45.0,44.1,43.0,97,94,89,29.96,29.94,0,0,0,0.00
2013-11-6,58.0,54.4,42.0,58.0,49.2,41.0,99,84,59,30.16,29.96,9,4,15,0.00
2013-11-7,50.0,41.7,34.0,41.0,32.5,26.0,98,73,42,30.29,30.10,8,3,13,0.00
2013-11-8,51.0,40.3,31.0,35.0,31.1,29.0,98,72,45,30.37,30.20,5,1,9,0.00
2013-11-9,61.0,48.5,38.0,43.0,33.0,-99.9,71,59,44,30.21,30.01,12,6,23,0.00
2013-11-10,51.0,44.9,36.0,42.0,33.5,30.0,84,65,49,30.34,30.12,8,3,14,0.00
2013-11-11,56.0,41.7,30.0,45.0,35.3,29.0,99,81,44,30.30,30.08,10,3,15,0.00
2013-11-12,37.0,30.8,27.0,32.0,24.8,21.0,99,79,53,30.63,30.31,10,4,15,0.00
2013-11-13,27.0,25.1,24.0,24.0,22.7,22.0,93,91,88,30.62,30.60,1,0,5,0.00
2013-12-5,63.0,42.0,27.0,59.0,39.5,27.0,99,91,81,30.18,29.74,9,6,16,0.10
2013-12-6,27.0,24.8,24.0,27.0,24.8,24.0,99,99,99,30.40,30.16,8,4,14,0.00
2013-12-7,24.0,16.2,10.0,24.0,13.6,-99.9,99,95,93,30.61,30.41,7,2,10,0.00
2013-12-8,30.0,24.0,15.0,30.0,22.7,14.0,99,94,86,30.50,30.00,8,4,10,0.00
2013-12-9,31.0,27.4,22.0,31.0,24.4,17.0,99,89,74,30.24,29.98,7,3,12,0.00
2013-12-10,29.0,21.7,17.0,20.0,16.5,14.0,98,81,53,30.34,30.16,12,3,17,0.00
2013-12-11,34.0,20.2,11.0,26.0,16.8,10.0,98,87,66,30.53,30.29,10,3,18,0.00
2013-12-12,14.0,10.1,9.0,10.0,6.2,5.0,86,83,83,30.56,30.54,3,1,8,0.00